Terminal Aerodrome Forecast
Issued by NWS

Home | Current Version | Previous Version | Text Only | Print | Product List | Glossary On
Versions: 1 2 3 4 5 6 7 8 9 10 11 12 13 14 15
000
FTUS42 KMHX 221700
TAFISO
TAF
KISO 221725Z 2218/2318 29005KT P6SM SCT040 SCT100
     FM222100 29005KT P6SM VCTS SCT040CB BKN100
     FM230600 00000KT 2SM BR SCT002 SCT100
     FM231230 03005KT 6SM BR SCT020 BKN050
      AMD LTD TO CLD VIS AND WIND=

USA.gov is the U.S. government's official web portal to all federal, state and local government web resources and services.